createdAt,value
2023-04-23T00:01:16.776Z,16.40
2023-04-23T00:04:02.072Z,20.90
2023-04-23T00:06:30.335Z,19.50
2023-04-23T00:09:16.391Z,19.10
2023-04-23T00:12:01.931Z,17.80
2023-04-23T00:14:34.385Z,22.20
2023-04-23T00:17:01.210Z,18.40
2023-04-23T00:19:45.714Z,17.60
2023-04-23T00:22:29.688Z,20.10
2023-04-23T00:24:53.366Z,20.20
2023-04-23T00:27:36.077Z,22.50
2023-04-23T00:30:13.938Z,22.00
2023-04-23T00:32:58.442Z,19.00
2023-04-23T00:35:22.913Z,18.70
2023-04-23T00:37:48.841Z,20.80
2023-04-23T00:40:32.789Z,22.60
2023-04-23T00:43:00.142Z,19.30
2023-04-23T00:45:23.926Z,18.30
2023-04-23T00:47:59.353Z,17.10
2023-04-23T00:50:23.644Z,18.70
2023-04-23T00:53:01.005Z,18.30
2023-04-23T00:55:24.693Z,21.40
2023-04-23T00:57:56.290Z,17.80
2023-04-23T01:00:20.574Z,21.60
2023-04-23T01:02:49.162Z,21.00
2023-04-23T01:05:33.626Z,20.10
2023-04-23T01:08:00.322Z,18.40
2023-04-23T01:10:34.430Z,21.10
2023-04-23T01:13:18.480Z,20.40
2023-04-23T01:16:02.967Z,20.60
2023-04-23T01:18:46.575Z,22.40
2023-04-23T01:21:29.485Z,20.10
2023-04-23T01:24:08.901Z,20.00
2023-04-23T01:26:53.279Z,19.10
2023-04-23T01:29:17.796Z,24.30
2023-04-23T01:31:41.952Z,19.30
2023-04-23T01:34:11.154Z,19.90
2023-04-23T01:36:55.925Z,22.00
2023-04-23T01:39:19.787Z,21.10
2023-04-23T01:41:53.907Z,19.10
2023-04-23T01:44:29.780Z,21.30
2023-04-23T01:46:53.620Z,19.80
2023-04-23T01:49:37.868Z,21.10
2023-04-23T01:52:05.050Z,23.30
2023-04-23T01:54:33.934Z,21.40
2023-04-23T01:57:23.414Z,22.40
2023-04-23T01:59:49.613Z,20.90
2023-04-23T02:02:13.571Z,20.30
2023-04-23T02:04:38.820Z,25.40
2023-04-23T02:07:23.708Z,21.70
2023-04-23T02:10:10.136Z,20.90
2023-04-23T02:12:54.415Z,20.90
2023-04-23T02:15:27.968Z,23.10
2023-04-23T02:18:03.168Z,18.00
2023-04-23T02:20:46.770Z,20.40
2023-04-23T02:23:30.682Z,22.00
2023-04-23T02:26:14.419Z,22.80
2023-04-23T02:28:50.434Z,24.80
2023-04-23T02:31:18.229Z,20.30
2023-04-23T02:33:52.184Z,18.90
2023-04-23T02:36:35.994Z,23.30
2023-04-23T02:39:20.463Z,21.70
2023-04-23T02:42:04.675Z,27.90
2023-04-23T02:44:28.274Z,21.60
2023-04-23T02:47:12.284Z,18.50
2023-04-23T02:49:57.122Z,25.30
2023-04-23T02:52:41.078Z,20.90
2023-04-23T02:55:25.308Z,18.80
2023-04-23T02:58:09.676Z,20.40
2023-04-23T03:00:53.802Z,19.50
2023-04-23T03:03:31.077Z,22.50
2023-04-23T03:06:15.199Z,21.50
2023-04-23T03:08:58.824Z,20.40
2023-04-23T03:11:31.862Z,21.10
2023-04-23T03:13:58.425Z,17.30
2023-04-23T03:16:27.582Z,22.50
2023-04-23T03:19:11.303Z,22.10
2023-04-23T03:21:35.973Z,24.30
2023-04-23T03:24:19.860Z,20.90
2023-04-23T03:27:03.666Z,19.40
2023-04-23T03:29:28.127Z,21.40
2023-04-23T03:32:02.083Z,18.60
2023-04-23T03:34:46.232Z,22.60
2023-04-23T03:37:30.918Z,21.70
2023-04-23T03:40:15.067Z,23.70
2023-04-23T03:42:59.333Z,21.20
2023-04-23T03:45:49.392Z,21.30
2023-04-23T03:48:33.420Z,23.10
2023-04-23T03:50:59.503Z,23.90
2023-04-23T03:53:41.404Z,22.70
2023-04-23T03:56:25.823Z,18.20
2023-04-23T03:59:16.705Z,21.70
2023-04-23T04:02:03.520Z,21.60
2023-04-23T04:04:49.566Z,21.60
2023-04-23T04:07:21.618Z,19.50
2023-04-23T04:09:46.596Z,21.60
2023-04-23T04:12:30.388Z,22.10
2023-04-23T04:15:14.466Z,23.10
2023-04-23T04:17:59.285Z,21.30
2023-04-23T04:20:44.821Z,20.10
2023-04-23T04:23:29.165Z,20.30
2023-04-23T04:25:55.863Z,23.40
2023-04-23T04:28:39.909Z,23.00
2023-04-23T04:31:25.033Z,19.50
2023-04-23T04:33:49.202Z,19.50
2023-04-23T04:36:13.056Z,21.20
2023-04-23T04:38:37.193Z,18.30
2023-04-23T04:41:02.056Z,24.40
2023-04-23T04:43:26.000Z,22.00
2023-04-23T04:45:50.453Z,19.00
2023-04-23T04:48:16.807Z,16.50
2023-04-23T04:50:40.496Z,17.80
2023-04-23T04:53:03.880Z,19.20
2023-04-23T04:55:27.641Z,17.40
2023-04-23T04:57:51.181Z,18.20
2023-04-23T05:00:24.017Z,18.00
2023-04-23T05:02:47.960Z,17.00
2023-04-23T05:05:11.445Z,14.40
2023-04-23T05:07:34.896Z,15.60
2023-04-23T05:09:58.366Z,13.60
2023-04-23T05:12:21.838Z,15.60
2023-04-23T05:14:45.928Z,19.90
2023-04-23T05:17:09.469Z,15.50
2023-04-23T05:19:32.830Z,13.40
2023-04-23T05:21:56.295Z,15.90
2023-04-23T05:24:20.078Z,12.40
2023-04-23T05:26:43.491Z,15.90
2023-04-23T05:29:06.891Z,13.40
2023-04-23T05:31:30.706Z,12.90
2023-04-23T05:33:54.306Z,15.60
2023-04-23T05:36:17.782Z,15.80
2023-04-23T05:38:41.165Z,13.10
2023-04-23T05:41:04.654Z,12.30
2023-04-23T05:43:28.106Z,18.10
2023-04-23T05:45:52.081Z,12.50
2023-04-23T05:48:15.749Z,10.60
2023-04-23T05:50:39.492Z,12.80
2023-04-23T05:53:03.462Z,11.60
2023-04-23T05:55:26.827Z,11.80
2023-04-23T05:57:50.700Z,12.20
2023-04-23T06:00:16.447Z,14.50
2023-04-23T06:05:03.862Z,9.10
2023-04-23T06:07:27.524Z,11.20
2023-04-23T06:09:50.834Z,9.20
2023-04-23T06:12:14.245Z,9.90
2023-04-23T06:14:38.081Z,12.20
2023-04-23T06:17:01.376Z,10.10
2023-04-23T06:19:26.651Z,8.90
2023-04-23T06:21:51.559Z,8.80
2023-04-23T06:24:15.047Z,8.70
2023-04-23T06:26:38.540Z,10.20
2023-04-23T06:29:07.089Z,8.50
2023-04-23T06:31:35.229Z,9.60
2023-04-23T06:33:58.661Z,9.60
2023-04-23T06:36:22.049Z,8.10
2023-04-23T06:38:45.417Z,11.20
2023-04-23T06:41:08.842Z,14.30
2023-04-23T06:43:32.270Z,8.00
2023-04-23T06:46:14.481Z,8.40
2023-04-23T06:48:38.013Z,7.80
2023-04-23T06:51:01.375Z,10.60
2023-04-23T06:53:25.286Z,8.90
2023-04-23T06:55:50.622Z,11.40
2023-04-23T06:58:14.271Z,8.60
2023-04-23T07:00:39.034Z,9.60
2023-04-23T07:03:02.891Z,8.40
2023-04-23T07:05:26.433Z,7.40
2023-04-23T07:07:50.187Z,10.70
2023-04-23T07:10:15.622Z,10.20
2023-04-23T07:12:41.296Z,7.40
2023-04-23T07:15:06.909Z,9.90
2023-04-23T07:19:53.232Z,10.20
2023-04-23T07:22:16.898Z,6.70
2023-04-23T07:24:41.269Z,8.70
2023-04-23T07:27:05.585Z,7.10
2023-04-23T07:29:29.408Z,7.40
2023-04-23T07:31:52.965Z,9.90
2023-04-23T07:34:16.409Z,12.70
2023-04-23T07:36:39.878Z,13.00
2023-04-23T07:39:04.576Z,12.50
2023-04-23T07:41:28.350Z,9.80
2023-04-23T07:43:51.989Z,8.10
2023-04-23T07:46:15.626Z,9.30
2023-04-23T07:48:39.223Z,11.20
2023-04-23T07:51:02.854Z,6.50
2023-04-23T07:53:27.946Z,6.10
2023-04-23T07:55:51.883Z,7.90
2023-04-23T07:58:15.239Z,7.80
2023-04-23T08:00:38.744Z,6.90
2023-04-23T08:03:02.231Z,8.20
2023-04-23T08:05:26.144Z,7.50
2023-04-23T08:07:50.118Z,6.70
2023-04-23T08:10:13.587Z,8.10
2023-04-23T08:12:37.145Z,7.80
2023-04-23T08:15:00.676Z,6.60
2023-04-23T08:17:27.682Z,7.30
2023-04-23T08:19:51.142Z,9.60
2023-04-23T08:22:15.678Z,6.40
2023-04-23T08:24:39.034Z,6.40
2023-04-23T08:27:02.455Z,9.90
2023-04-23T08:29:26.005Z,4.70
2023-04-23T08:31:49.649Z,7.20
2023-04-23T08:34:14.407Z,6.20
2023-04-23T08:36:38.158Z,8.90
2023-04-23T08:39:03.375Z,5.10
2023-04-23T08:41:32.344Z,8.00
2023-04-23T08:44:05.926Z,6.50
2023-04-23T08:46:33.251Z,6.50
2023-04-23T08:48:59.007Z,4.20
2023-04-23T08:53:51.756Z,8.50
2023-04-23T08:56:15.598Z,5.50
2023-04-23T08:58:39.540Z,5.30
2023-04-23T09:01:04.071Z,5.90
2023-04-23T09:03:28.971Z,6.70
2023-04-23T09:05:52.747Z,4.80
2023-04-23T09:08:16.524Z,6.70
2023-04-23T09:10:42.198Z,4.50
2023-04-23T09:13:05.799Z,4.00
2023-04-23T09:15:29.302Z,6.10
2023-04-23T09:17:52.775Z,6.10
2023-04-23T09:20:17.083Z,6.80
2023-04-23T09:22:45.115Z,3.80
2023-04-23T09:25:11.406Z,7.20
2023-04-23T09:27:36.306Z,5.20
2023-04-23T09:30:04.461Z,6.00
2023-04-23T09:32:33.236Z,4.40
2023-04-23T09:34:57.848Z,5.60
2023-04-23T09:37:26.083Z,5.30
2023-04-23T09:39:52.867Z,4.60
2023-04-23T09:42:16.385Z,5.40
2023-04-23T09:44:39.829Z,4.20
2023-04-23T09:47:11.361Z,5.70
2023-04-23T09:49:46.576Z,4.30
2023-04-23T09:52:10.495Z,7.30
2023-04-23T09:54:34.000Z,12.80
2023-04-23T09:57:01.757Z,6.10
2023-04-23T09:59:45.389Z,6.10
2023-04-23T10:02:10.961Z,5.80
2023-04-23T10:04:35.753Z,5.60
2023-04-23T10:07:17.281Z,4.00
2023-04-23T10:09:43.739Z,5.60
2023-04-23T10:12:13.333Z,6.60
2023-04-23T10:14:46.152Z,4.40
2023-04-23T10:17:10.317Z,5.50
2023-04-23T10:19:34.262Z,5.30
2023-04-23T10:22:17.837Z,6.00
2023-04-23T10:24:43.892Z,3.80
2023-04-23T10:27:24.757Z,4.90
2023-04-23T10:29:53.366Z,5.60
2023-04-23T10:32:18.251Z,4.80
2023-04-23T10:34:42.875Z,8.50
2023-04-23T10:37:07.981Z,7.60
2023-04-23T10:39:34.071Z,5.70
2023-04-23T10:44:38.576Z,6.00
2023-04-23T10:47:06.353Z,4.30
2023-04-23T10:49:32.397Z,3.80
2023-04-23T10:54:31.155Z,9.90
2023-04-23T10:57:01.030Z,11.60
2023-04-23T10:59:24.554Z,6.40
2023-04-23T11:01:50.324Z,6.20
2023-04-23T11:04:22.713Z,5.30
2023-04-23T11:06:56.821Z,8.30
2023-04-23T11:09:36.343Z,4.00
2023-04-23T11:12:01.360Z,6.40
2023-04-23T11:14:36.516Z,5.20
2023-04-23T11:16:59.953Z,5.30
2023-04-23T11:19:23.366Z,8.60
2023-04-23T11:22:00.293Z,3.60
2023-04-23T11:24:23.968Z,6.30
2023-04-23T11:26:51.235Z,8.20
2023-04-23T11:29:16.299Z,52.50
2023-04-23T11:31:47.698Z,7.50
2023-04-23T11:34:24.915Z,11.00
2023-04-23T11:36:51.642Z,3.80
2023-04-23T11:39:15.324Z,5.20
2023-04-23T11:41:38.792Z,6.20
2023-04-23T11:44:03.828Z,6.00
2023-04-23T11:46:27.381Z,5.40
2023-04-23T11:48:51.013Z,4.80
2023-04-23T11:51:15.545Z,6.70
2023-04-23T11:53:45.948Z,6.10
2023-04-23T11:56:09.902Z,8.50
2023-04-23T11:58:35.072Z,7.10
2023-04-23T12:01:13.263Z,5.90
